Poland, New York
Current Conditions -  °F | °C
As of 10:53 AM on Friday 28 Nov 2014 (Local Time) from KRME Reporting Station
Light Snow Light Snow  
Wind Chill: 14°   Ceiling: 2000
Heat Index: 26°   Visibility: 5mi
Dew Point: 22°   Wind: 16mph
Humidity: 84%   Direction: 260°W
Pressure: 30.19"   Gusts: NA
Location:  43.23°N, 75.06°W
Report Text: KRME 281553Z AUTO 26014KT 5SM -SN BR FEW010 BKN020 OVC028 M03/M06 A3019 RMK AO2 UPB42E49SNE42B49 SLP227 P0002 T10331056
Loading
Personal Weather Stations






























Interactive Weather Map New forecast layout! Learn more

10-Day Weather Forecast

Advertisements
Track Severe Weather on mobile